sensor_id;sensor_type;location;lat;lon;timestamp;temperature;humidity
11549;DHT22;61444;59.472;18.306;2023-06-24T00:00:20;12.90;99.90
11549;DHT22;61444;59.472;18.306;2023-06-24T00:02:31;12.80;99.90
11549;DHT22;61444;59.472;18.306;2023-06-24T00:04:43;12.80;99.90
11549;DHT22;61444;59.472;18.306;2023-06-24T00:06:51;12.80;99.90
11549;DHT22;61444;59.472;18.306;2023-06-24T00:09:05;12.80;99.90
11549;DHT22;61444;59.472;18.306;2023-06-24T00:11:15;12.90;99.90
11549;DHT22;61444;59.472;18.306;2023-06-24T00:13:24;13.00;99.90
11549;DHT22;61444;59.472;18.306;2023-06-24T00:15:34;12.90;99.90
11549;DHT22;61444;59.472;18.306;2023-06-24T00:17:45;12.80;99.90
11549;DHT22;61444;59.472;18.306;2023-06-24T00:19:54;12.70;99.90
11549;DHT22;61444;59.472;18.306;2023-06-24T00:22:02;12.70;99.90
11549;DHT22;61444;59.472;18.306;2023-06-24T00:24:13;12.70;99.90
11549;DHT22;61444;59.472;18.306;2023-06-24T00:26:22;12.70;99.90
11549;DHT22;61444;59.472;18.306;2023-06-24T00:28:30;12.70;99.90
11549;DHT22;61444;59.472;18.306;2023-06-24T00:30:39;12.70;99.90
11549;DHT22;61444;59.472;18.306;2023-06-24T00:32:49;12.60;99.90
11549;DHT22;61444;59.472;18.306;2023-06-24T00:34:58;12.60;99.90
11549;DHT22;61444;59.472;18.306;2023-06-24T00:37:07;12.50;99.90
11549;DHT22;61444;59.472;18.306;2023-06-24T00:39:15;12.50;99.90
11549;DHT22;61444;59.472;18.306;2023-06-24T00:41:24;12.50;99.90
11549;DHT22;61444;59.472;18.306;2023-06-24T00:43:33;12.50;99.90
11549;DHT22;61444;59.472;18.306;2023-06-24T00:45:42;12.50;99.90
11549;DHT22;61444;59.472;18.306;2023-06-24T00:47:57;12.60;99.90
11549;DHT22;61444;59.472;18.306;2023-06-24T00:50:07;12.60;99.90
11549;DHT22;61444;59.472;18.306;2023-06-24T00:52:16;12.70;99.90
11549;DHT22;61444;59.472;18.306;2023-06-24T00:54:24;12.70;99.90
11549;DHT22;61444;59.472;18.306;2023-06-24T00:56:38;12.70;99.90
11549;DHT22;61444;59.472;18.306;2023-06-24T00:58:49;12.60;99.90
11549;DHT22;61444;59.472;18.306;2023-06-24T01:00:58;12.60;99.90
11549;DHT22;61444;59.472;18.306;2023-06-24T01:03:10;12.60;99.90
11549;DHT22;61444;59.472;18.306;2023-06-24T01:05:21;12.50;99.90
11549;DHT22;61444;59.472;18.306;2023-06-24T01:07:31;12.40;99.90
11549;DHT22;61444;59.472;18.306;2023-06-24T01:09:40;12.30;99.90
11549;DHT22;61444;59.472;18.306;2023-06-24T01:11:52;12.20;99.90
11549;DHT22;61444;59.472;18.306;2023-06-24T01:14:02;12.10;99.90
11549;DHT22;61444;59.472;18.306;2023-06-24T01:16:16;12.20;99.90
11549;DHT22;61444;59.472;18.306;2023-06-24T01:18:34;12.20;99.90
11549;DHT22;61444;59.472;18.306;2023-06-24T01:20:49;12.30;99.90
11549;DHT22;61444;59.472;18.306;2023-06-24T01:23:11;12.30;99.90
11549;DHT22;61444;59.472;18.306;2023-06-24T01:25:42;12.30;99.90
11549;DHT22;61444;59.472;18.306;2023-06-24T01:28:03;12.20;99.90
11549;DHT22;61444;59.472;18.306;2023-06-24T01:33:01;12.10;99.90
11549;DHT22;61444;59.472;18.306;2023-06-24T01:35:15;12.10;99.90
11549;DHT22;61444;59.472;18.306;2023-06-24T01:37:34;12.00;99.90
11549;DHT22;61444;59.472;18.306;2023-06-24T01:39:49;12.00;99.90
11549;DHT22;61444;59.472;18.306;2023-06-24T01:42:02;12.10;99.90
11549;DHT22;61444;59.472;18.306;2023-06-24T01:44:14;12.10;99.90
11549;DHT22;61444;59.472;18.306;2023-06-24T01:46:25;12.20;99.90
11549;DHT22;61444;59.472;18.306;2023-06-24T01:48:39;12.10;99.90
11549;DHT22;61444;59.472;18.306;2023-06-24T01:50:57;12.10;99.90
11549;DHT22;61444;59.472;18.306;2023-06-24T01:53:07;12.10;99.90
11549;DHT22;61444;59.472;18.306;2023-06-24T01:55:19;12.10;99.90
11549;DHT22;61444;59.472;18.306;2023-06-24T01:57:30;11.90;99.90
11549;DHT22;61444;59.472;18.306;2023-06-24T01:59:42;11.90;99.90
11549;DHT22;61444;59.472;18.306;2023-06-24T02:01:54;11.80;99.90
11549;DHT22;61444;59.472;18.306;2023-06-24T02:04:07;11.80;99.90
11549;DHT22;61444;59.472;18.306;2023-06-24T02:06:17;11.70;99.90
11549;DHT22;61444;59.472;18.306;2023-06-24T02:08:30;11.70;99.90
11549;DHT22;61444;59.472;18.306;2023-06-24T02:10:41;11.60;99.90
11549;DHT22;61444;59.472;18.306;2023-06-24T02:12:52;11.70;99.90
11549;DHT22;61444;59.472;18.306;2023-06-24T02:15:02;11.70;99.90
11549;DHT22;61444;59.472;18.306;2023-06-24T02:17:12;11.70;99.90
11549;DHT22;61444;59.472;18.306;2023-06-24T02:19:24;11.70;99.90
11549;DHT22;61444;59.472;18.306;2023-06-24T02:21:35;11.80;99.90
11549;DHT22;61444;59.472;18.306;2023-06-24T02:23:44;11.80;99.90
11549;DHT22;61444;59.472;18.306;2023-06-24T02:25:54;11.80;99.90
11549;DHT22;61444;59.472;18.306;2023-06-24T02:28:04;11.80;99.90
11549;DHT22;61444;59.472;18.306;2023-06-24T02:30:14;11.80;99.90
11549;DHT22;61444;59.472;18.306;2023-06-24T02:32:24;11.80;99.90
11549;DHT22;61444;59.472;18.306;2023-06-24T02:34:37;11.80;99.90
11549;DHT22;61444;59.472;18.306;2023-06-24T02:36:47;11.70;99.90
11549;DHT22;61444;59.472;18.306;2023-06-24T02:38:56;11.70;99.90
11549;DHT22;61444;59.472;18.306;2023-06-24T02:41:04;11.70;99.90
11549;DHT22;61444;59.472;18.306;2023-06-24T02:43:14;11.70;99.90
11549;DHT22;61444;59.472;18.306;2023-06-24T02:45:23;11.80;99.90
11549;DHT22;61444;59.472;18.306;2023-06-24T02:47:33;11.80;99.90
11549;DHT22;61444;59.472;18.306;2023-06-24T02:49:45;11.80;99.90
11549;DHT22;61444;59.472;18.306;2023-06-24T02:51:55;11.90;99.90
11549;DHT22;61444;59.472;18.306;2023-06-24T02:54:04;11.90;99.90
11549;DHT22;61444;59.472;18.306;2023-06-24T02:56:13;11.90;99.90
11549;DHT22;61444;59.472;18.306;2023-06-24T02:58:28;12.00;99.90
11549;DHT22;61444;59.472;18.306;2023-06-24T03:00:39;12.30;99.90
11549;DHT22;61444;59.472;18.306;2023-06-24T03:02:48;12.40;99.90
11549;DHT22;61444;59.472;18.306;2023-06-24T03:04:59;12.40;99.90
11549;DHT22;61444;59.472;18.306;2023-06-24T03:07:10;12.60;99.90
11549;DHT22;61444;59.472;18.306;2023-06-24T03:09:19;12.60;99.90
11549;DHT22;61444;59.472;18.306;2023-06-24T03:11:28;12.60;99.90
11549;DHT22;61444;59.472;18.306;2023-06-24T03:13:36;12.60;99.90
11549;DHT22;61444;59.472;18.306;2023-06-24T03:15:45;12.60;99.90
11549;DHT22;61444;59.472;18.306;2023-06-24T03:17:54;12.70;99.90
11549;DHT22;61444;59.472;18.306;2023-06-24T03:20:07;12.80;99.90
11549;DHT22;61444;59.472;18.306;2023-06-24T03:22:16;12.80;99.90
11549;DHT22;61444;59.472;18.306;2023-06-24T03:24:24;12.90;99.90
11549;DHT22;61444;59.472;18.306;2023-06-24T03:26:33;12.90;99.90
11549;DHT22;61444;59.472;18.306;2023-06-24T03:28:43;13.00;99.90
11549;DHT22;61444;59.472;18.306;2023-06-24T03:30:52;13.10;99.90
11549;DHT22;61444;59.472;18.306;2023-06-24T03:33:00;13.20;99.90
11549;DHT22;61444;59.472;18.306;2023-06-24T03:35:11;13.20;99.90
11549;DHT22;61444;59.472;18.306;2023-06-24T03:37:19;13.20;99.90
11549;DHT22;61444;59.472;18.306;2023-06-24T03:39:28;13.30;99.90
11549;DHT22;61444;59.472;18.306;2023-06-24T03:41:37;13.30;99.90
11549;DHT22;61444;59.472;18.306;2023-06-24T03:43:48;13.30;99.90
11549;DHT22;61444;59.472;18.306;2023-06-24T03:45:57;13.30;99.90
11549;DHT22;61444;59.472;18.306;2023-06-24T03:48:07;13.40;99.90
11549;DHT22;61444;59.472;18.306;2023-06-24T03:50:18;13.40;99.90
11549;DHT22;61444;59.472;18.306;2023-06-24T03:52:27;13.50;99.90
11549;DHT22;61444;59.472;18.306;2023-06-24T03:54:35;13.60;99.90
11549;DHT22;61444;59.472;18.306;2023-06-24T03:56:44;13.60;99.90
11549;DHT22;61444;59.472;18.306;2023-06-24T03:58:53;13.50;99.90
11549;DHT22;61444;59.472;18.306;2023-06-24T04:01:03;13.60;99.90
11549;DHT22;61444;59.472;18.306;2023-06-24T04:03:11;13.70;99.90
11549;DHT22;61444;59.472;18.306;2023-06-24T04:05:23;13.70;99.90
11549;DHT22;61444;59.472;18.306;2023-06-24T04:07:32;13.80;99.90
11549;DHT22;61444;59.472;18.306;2023-06-24T04:09:42;13.90;99.90
11549;DHT22;61444;59.472;18.306;2023-06-24T04:11:51;14.00;99.90
11549;DHT22;61444;59.472;18.306;2023-06-24T04:14:00;14.00;99.90
11549;DHT22;61444;59.472;18.306;2023-06-24T04:16:09;13.40;99.90
11549;DHT22;61444;59.472;18.306;2023-06-24T04:18:19;14.00;99.90
11549;DHT22;61444;59.472;18.306;2023-06-24T09:34:00;22.40;58.60
11549;DHT22;61444;59.472;18.306;2023-06-24T09:36:11;22.40;59.20
11549;DHT22;61444;59.472;18.306;2023-06-24T09:38:32;22.20;60.30
11549;DHT22;61444;59.472;18.306;2023-06-24T09:40:41;22.50;60.20
11549;DHT22;61444;59.472;18.306;2023-06-24T09:42:51;22.60;59.00
11549;DHT22;61444;59.472;18.306;2023-06-24T09:45:04;22.70;59.40
11549;DHT22;61444;59.472;18.306;2023-06-24T09:47:13;22.80;59.00
11549;DHT22;61444;59.472;18.306;2023-06-24T09:49:22;22.90;59.00
11549;DHT22;61444;59.472;18.306;2023-06-24T09:53:43;22.90;58.30
11549;DHT22;61444;59.472;18.306;2023-06-24T09:55:52;22.80;58.70
11549;DHT22;61444;59.472;18.306;2023-06-24T09:58:01;22.60;58.70
11549;DHT22;61444;59.472;18.306;2023-06-24T10:00:12;22.80;58.80
11549;DHT22;61444;59.472;18.306;2023-06-24T10:02:22;23.00;59.10
11549;DHT22;61444;59.472;18.306;2023-06-24T10:04:31;22.40;57.80
11549;DHT22;61444;59.472;18.306;2023-06-24T10:06:40;22.60;59.50
11549;DHT22;61444;59.472;18.306;2023-06-24T10:08:50;22.90;59.20
11549;DHT22;61444;59.472;18.306;2023-06-24T10:10:59;23.30;60.70
11549;DHT22;61444;59.472;18.306;2023-06-24T10:13:08;23.30;58.80
11549;DHT22;61444;59.472;18.306;2023-06-24T10:15:16;23.30;59.20
11549;DHT22;61444;59.472;18.306;2023-06-24T10:17:25;23.40;58.20
11549;DHT22;61444;59.472;18.306;2023-06-24T10:19:38;23.50;59.40
11549;DHT22;61444;59.472;18.306;2023-06-24T10:21:49;23.30;58.60
11549;DHT22;61444;59.472;18.306;2023-06-24T10:23:59;23.20;58.00
11549;DHT22;61444;59.472;18.306;2023-06-24T10:26:08;23.30;58.60
11549;DHT22;61444;59.472;18.306;2023-06-24T10:28:18;23.10;59.10
11549;DHT22;61444;59.472;18.306;2023-06-24T10:30:26;23.20;58.90
11549;DHT22;61444;59.472;18.306;2023-06-24T10:32:42;23.10;59.10
11549;DHT22;61444;59.472;18.306;2023-06-24T10:34:55;23.10;58.30
11549;DHT22;61444;59.472;18.306;2023-06-24T10:37:05;23.30;59.60
11549;DHT22;61444;59.472;18.306;2023-06-24T10:39:44;23.40;58.90
11549;DHT22;61444;59.472;18.306;2023-06-24T10:41:54;23.00;59.00
11549;DHT22;61444;59.472;18.306;2023-06-24T10:44:14;23.50;59.00
11549;DHT22;61444;59.472;18.306;2023-06-24T10:46:26;23.40;59.30
11549;DHT22;61444;59.472;18.306;2023-06-24T10:48:34;23.60;59.10
11549;DHT22;61444;59.472;18.306;2023-06-24T10:50:43;23.70;58.80
11549;DHT22;61444;59.472;18.306;2023-06-24T10:52:52;23.80;59.90
11549;DHT22;61444;59.472;18.306;2023-06-24T10:55:04;23.60;59.30
11549;DHT22;61444;59.472;18.306;2023-06-24T10:57:14;23.70;59.80
11549;DHT22;61444;59.472;18.306;2023-06-24T10:59:22;23.60;59.50
11549;DHT22;61444;59.472;18.306;2023-06-24T11:01:30;23.20;58.20
11549;DHT22;61444;59.472;18.306;2023-06-24T11:03:40;23.20;58.60
11549;DHT22;61444;59.472;18.306;2023-06-24T11:05:49;23.40;59.00
11549;DHT22;61444;59.472;18.306;2023-06-24T11:07:57;23.40;58.40
11549;DHT22;61444;59.472;18.306;2023-06-24T11:10:10;23.40;58.80
11549;DHT22;61444;59.472;18.306;2023-06-24T11:12:23;23.40;59.10
11549;DHT22;61444;59.472;18.306;2023-06-24T11:14:33;23.70;59.80
11549;DHT22;61444;59.472;18.306;2023-06-24T11:16:42;24.10;58.80
11549;DHT22;61444;59.472;18.306;2023-06-24T11:18:50;24.10;58.80
11549;DHT22;61444;59.472;18.306;2023-06-24T11:20:59;24.40;58.80
11549;DHT22;61444;59.472;18.306;2023-06-24T11:23:08;23.90;59.20
11549;DHT22;61444;59.472;18.306;2023-06-24T11:25:21;23.80;59.40
11549;DHT22;61444;59.472;18.306;2023-06-24T11:27:30;23.50;59.30
11549;DHT22;61444;59.472;18.306;2023-06-24T11:29:39;23.80;60.10
11549;DHT22;61444;59.472;18.306;2023-06-24T11:31:48;23.90;60.20
11549;DHT22;61444;59.472;18.306;2023-06-24T11:33:56;23.70;58.80
11549;DHT22;61444;59.472;18.306;2023-06-24T11:36:09;23.90;59.10
11549;DHT22;61444;59.472;18.306;2023-06-24T11:38:17;23.80;58.90
11549;DHT22;61444;59.472;18.306;2023-06-24T11:40:27;23.80;59.80
11549;DHT22;61444;59.472;18.306;2023-06-24T11:42:36;24.20;59.00
11549;DHT22;61444;59.472;18.306;2023-06-24T11:44:46;24.20;58.70
11549;DHT22;61444;59.472;18.306;2023-06-24T11:47:03;24.10;58.50
11549;DHT22;61444;59.472;18.306;2023-06-24T11:49:13;23.90;57.90
11549;DHT22;61444;59.472;18.306;2023-06-24T11:51:23;23.80;59.30
11549;DHT22;61444;59.472;18.306;2023-06-24T11:53:41;23.90;60.10
11549;DHT22;61444;59.472;18.306;2023-06-24T11:55:55;24.10;58.20
11549;DHT22;61444;59.472;18.306;2023-06-24T11:58:04;24.10;58.40
11549;DHT22;61444;59.472;18.306;2023-06-24T12:00:16;24.10;58.90
11549;DHT22;61444;59.472;18.306;2023-06-24T12:02:24;24.10;58.30
11549;DHT22;61444;59.472;18.306;2023-06-24T12:04:33;24.10;58.80
11549;DHT22;61444;59.472;18.306;2023-06-24T12:06:43;23.70;58.00
11549;DHT22;61444;59.472;18.306;2023-06-24T12:08:52;23.90;58.40
11549;DHT22;61444;59.472;18.306;2023-06-24T12:11:02;24.50;58.90
11549;DHT22;61444;59.472;18.306;2023-06-24T12:15:19;24.00;56.30
11549;DHT22;61444;59.472;18.306;2023-06-24T12:17:27;24.00;58.20
11549;DHT22;61444;59.472;18.306;2023-06-24T12:19:36;24.10;58.10
11549;DHT22;61444;59.472;18.306;2023-06-24T12:21:44;24.00;59.10
11549;DHT22;61444;59.472;18.306;2023-06-24T12:23:52;24.10;58.10
11549;DHT22;61444;59.472;18.306;2023-06-24T12:26:02;24.00;58.20
11549;DHT22;61444;59.472;18.306;2023-06-24T12:28:10;23.90;58.10
11549;DHT22;61444;59.472;18.306;2023-06-24T12:30:19;24.20;57.70
11549;DHT22;61444;59.472;18.306;2023-06-24T12:32:28;24.60;57.90
11549;DHT22;61444;59.472;18.306;2023-06-24T12:34:36;24.90;57.80
11549;DHT22;61444;59.472;18.306;2023-06-24T12:36:44;24.50;56.90
11549;DHT22;61444;59.472;18.306;2023-06-24T12:38:53;24.30;56.40
11549;DHT22;61444;59.472;18.306;2023-06-24T12:41:03;24.80;58.50
11549;DHT22;61444;59.472;18.306;2023-06-24T12:43:11;25.20;58.00
11549;DHT22;61444;59.472;18.306;2023-06-24T12:45:20;25.10;58.70
11549;DHT22;61444;59.472;18.306;2023-06-24T12:47:28;25.00;57.30
11549;DHT22;61444;59.472;18.306;2023-06-24T12:49:37;25.00;57.00
11549;DHT22;61444;59.472;18.306;2023-06-24T12:51:45;25.20;57.30
11549;DHT22;61444;59.472;18.306;2023-06-24T12:53:53;25.30;57.20
11549;DHT22;61444;59.472;18.306;2023-06-24T12:56:03;25.50;57.10
11549;DHT22;61444;59.472;18.306;2023-06-24T12:58:13;25.60;57.60
11549;DHT22;61444;59.472;18.306;2023-06-24T13:00:22;25.40;56.40
11549;DHT22;61444;59.472;18.306;2023-06-24T13:02:30;25.40;56.70
11549;DHT22;61444;59.472;18.306;2023-06-24T13:04:39;25.20;56.90
11549;DHT22;61444;59.472;18.306;2023-06-24T13:06:48;25.20;57.30
11549;DHT22;61444;59.472;18.306;2023-06-24T13:08:57;25.60;57.80
11549;DHT22;61444;59.472;18.306;2023-06-24T13:11:06;25.90;56.20
11549;DHT22;61444;59.472;18.306;2023-06-24T13:13:15;26.00;56.60
11549;DHT22;61444;59.472;18.306;2023-06-24T13:15:23;26.20;56.10
11549;DHT22;61444;59.472;18.306;2023-06-24T13:17:32;26.10;55.00
11549;DHT22;61444;59.472;18.306;2023-06-24T13:19:40;25.40;55.40
11549;DHT22;61444;59.472;18.306;2023-06-24T13:21:48;24.90;55.40
11549;DHT22;61444;59.472;18.306;2023-06-24T13:23:57;25.20;56.80
11549;DHT22;61444;59.472;18.306;2023-06-24T13:26:07;25.20;56.90
11549;DHT22;61444;59.472;18.306;2023-06-24T13:28:15;25.20;55.60
11549;DHT22;61444;59.472;18.306;2023-06-24T13:30:23;25.30;54.90
11549;DHT22;61444;59.472;18.306;2023-06-24T13:32:31;25.40;56.50
11549;DHT22;61444;59.472;18.306;2023-06-24T13:34:40;25.60;55.50
11549;DHT22;61444;59.472;18.306;2023-06-24T13:36:49;25.70;54.50
11549;DHT22;61444;59.472;18.306;2023-06-24T13:38:57;25.80;57.20
11549;DHT22;61444;59.472;18.306;2023-06-24T13:41:07;25.80;55.70
11549;DHT22;61444;59.472;18.306;2023-06-24T13:43:15;25.40;56.70
11549;DHT22;61444;59.472;18.306;2023-06-24T13:45:23;25.50;57.00
11549;DHT22;61444;59.472;18.306;2023-06-24T13:47:32;25.80;56.30
11549;DHT22;61444;59.472;18.306;2023-06-24T13:49:40;26.00;56.10
11549;DHT22;61444;59.472;18.306;2023-06-24T13:51:48;26.30;55.90
11549;DHT22;61444;59.472;18.306;2023-06-24T13:53:57;26.30;56.80
11549;DHT22;61444;59.472;18.306;2023-06-24T13:56:06;26.20;55.40
11549;DHT22;61444;59.472;18.306;2023-06-24T13:58:15;26.20;54.60
11549;DHT22;61444;59.472;18.306;2023-06-24T14:00:23;26.30;55.80
11549;DHT22;61444;59.472;18.306;2023-06-24T14:02:32;25.90;54.40
11549;DHT22;61444;59.472;18.306;2023-06-24T14:04:41;26.20;55.00
11549;DHT22;61444;59.472;18.306;2023-06-24T14:06:49;26.40;54.20
11549;DHT22;61444;59.472;18.306;2023-06-24T14:08:57;26.10;54.10
11549;DHT22;61444;59.472;18.306;2023-06-24T14:11:07;26.80;56.30
11549;DHT22;61444;59.472;18.306;2023-06-24T14:13:16;27.00;54.70
11549;DHT22;61444;59.472;18.306;2023-06-24T14:15:24;26.70;53.60
11549;DHT22;61444;59.472;18.306;2023-06-24T14:17:32;26.50;54.30
11549;DHT22;61444;59.472;18.306;2023-06-24T14:19:41;26.20;54.90
11549;DHT22;61444;59.472;18.306;2023-06-24T14:21:49;26.40;55.70
11549;DHT22;61444;59.472;18.306;2023-06-24T14:23:58;26.90;55.00
11549;DHT22;61444;59.472;18.306;2023-06-24T14:26:18;26.20;54.60
11549;DHT22;61444;59.472;18.306;2023-06-24T14:28:27;25.60;54.40
11549;DHT22;61444;59.472;18.306;2023-06-24T14:30:35;25.60;54.60
11549;DHT22;61444;59.472;18.306;2023-06-24T14:32:44;26.50;54.10
11549;DHT22;61444;59.472;18.306;2023-06-24T14:34:52;26.80;53.80
11549;DHT22;61444;59.472;18.306;2023-06-24T14:37:00;26.70;52.90
11549;DHT22;61444;59.472;18.306;2023-06-24T14:39:11;26.70;53.70
11549;DHT22;61444;59.472;18.306;2023-06-24T14:41:21;26.80;54.20
11549;DHT22;61444;59.472;18.306;2023-06-24T14:43:30;26.80;53.30
11549;DHT22;61444;59.472;18.306;2023-06-24T14:45:38;26.60;52.30
11549;DHT22;61444;59.472;18.306;2023-06-24T14:47:47;25.90;52.70
11549;DHT22;61444;59.472;18.306;2023-06-24T14:49:55;26.00;54.00
11549;DHT22;61444;59.472;18.306;2023-06-24T14:52:04;26.50;52.20
11549;DHT22;61444;59.472;18.306;2023-06-24T14:54:12;26.50;53.00
11549;DHT22;61444;59.472;18.306;2023-06-24T14:56:22;26.80;52.90
11549;DHT22;61444;59.472;18.306;2023-06-24T14:58:30;26.70;52.90
11549;DHT22;61444;59.472;18.306;2023-06-24T15:00:38;26.50;53.10
11549;DHT22;61444;59.472;18.306;2023-06-24T15:02:47;26.90;52.90
11549;DHT22;61444;59.472;18.306;2023-06-24T15:04:55;27.30;53.30
11549;DHT22;61444;59.472;18.306;2023-06-24T15:07:03;27.10;53.60
11549;DHT22;61444;59.472;18.306;2023-06-24T15:09:12;27.20;54.10
11549;DHT22;61444;59.472;18.306;2023-06-24T15:11:22;26.70;52.40
11549;DHT22;61444;59.472;18.306;2023-06-24T15:13:31;26.60;53.20
11549;DHT22;61444;59.472;18.306;2023-06-24T15:15:40;26.20;52.90
11549;DHT22;61444;59.472;18.306;2023-06-24T15:17:48;25.80;53.20
11549;DHT22;61444;59.472;18.306;2023-06-24T15:19:56;25.60;53.60
11549;DHT22;61444;59.472;18.306;2023-06-24T15:22:05;26.10;53.70
11549;DHT22;61444;59.472;18.306;2023-06-24T15:24:13;25.90;53.60
11549;DHT22;61444;59.472;18.306;2023-06-24T15:26:23;26.20;53.20
11549;DHT22;61444;59.472;18.306;2023-06-24T15:28:32;26.20;53.70
11549;DHT22;61444;59.472;18.306;2023-06-24T15:30:41;26.00;52.80
11549;DHT22;61444;59.472;18.306;2023-06-24T15:32:49;26.10;53.30
11549;DHT22;61444;59.472;18.306;2023-06-24T15:34:57;26.70;52.20
11549;DHT22;61444;59.472;18.306;2023-06-24T15:37:06;26.80;52.20
11549;DHT22;61444;59.472;18.306;2023-06-24T15:39:15;26.90;52.00
11549;DHT22;61444;59.472;18.306;2023-06-24T15:41:25;26.00;52.60
11549;DHT22;61444;59.472;18.306;2023-06-24T15:43:33;25.60;53.60
11549;DHT22;61444;59.472;18.306;2023-06-24T15:45:41;25.90;53.70
11549;DHT22;61444;59.472;18.306;2023-06-24T15:47:50;26.30;53.50
11549;DHT22;61444;59.472;18.306;2023-06-24T15:49:58;27.00;53.40
11549;DHT22;61444;59.472;18.306;2023-06-24T15:52:07;26.90;53.10
11549;DHT22;61444;59.472;18.306;2023-06-24T15:54:16;27.60;53.30
11549;DHT22;61444;59.472;18.306;2023-06-24T15:56:25;27.70;53.00
11549;DHT22;61444;59.472;18.306;2023-06-24T15:58:33;28.10;53.60
11549;DHT22;61444;59.472;18.306;2023-06-24T16:00:42;28.00;62.40
11549;DHT22;61444;59.472;18.306;2023-06-24T16:02:51;28.00;64.00
11549;DHT22;61444;59.472;18.306;2023-06-24T16:04:59;26.80;60.10
11549;DHT22;61444;59.472;18.306;2023-06-24T16:07:12;26.70;67.10
11549;DHT22;61444;59.472;18.306;2023-06-24T16:09:20;26.50;67.00
11549;DHT22;61444;59.472;18.306;2023-06-24T16:11:30;26.30;68.80
11549;DHT22;61444;59.472;18.306;2023-06-24T16:13:38;25.80;71.40
11549;DHT22;61444;59.472;18.306;2023-06-24T16:15:46;26.90;70.00
11549;DHT22;61444;59.472;18.306;2023-06-24T16:17:54;27.40;67.90
11549;DHT22;61444;59.472;18.306;2023-06-24T16:20:03;27.50;68.30
11549;DHT22;61444;59.472;18.306;2023-06-24T16:22:13;26.40;69.40
11549;DHT22;61444;59.472;18.306;2023-06-24T16:24:22;27.30;69.40
11549;DHT22;61444;59.472;18.306;2023-06-24T16:26:31;28.10;66.10
11549;DHT22;61444;59.472;18.306;2023-06-24T16:28:53;28.40;65.70
11549;DHT22;61444;59.472;18.306;2023-06-24T16:31:01;29.20;64.70
11549;DHT22;61444;59.472;18.306;2023-06-24T16:33:10;29.20;65.20
11549;DHT22;61444;59.472;18.306;2023-06-24T16:35:18;28.00;66.40
11549;DHT22;61444;59.472;18.306;2023-06-24T16:37:27;27.10;69.90
11549;DHT22;61444;59.472;18.306;2023-06-24T16:39:35;27.10;68.30
11549;DHT22;61444;59.472;18.306;2023-06-24T16:41:45;27.00;68.60
11549;DHT22;61444;59.472;18.306;2023-06-24T16:43:53;26.90;70.90
11549;DHT22;61444;59.472;18.306;2023-06-24T16:46:01;27.60;68.90
11549;DHT22;61444;59.472;18.306;2023-06-24T16:48:10;28.50;67.30
11549;DHT22;61444;59.472;18.306;2023-06-24T16:50:18;28.40;67.50
11549;DHT22;61444;59.472;18.306;2023-06-24T16:52:27;28.00;67.40
11549;DHT22;61444;59.472;18.306;2023-06-24T16:54:36;28.10;66.90
11549;DHT22;61444;59.472;18.306;2023-06-24T16:56:46;27.40;67.80
11549;DHT22;61444;59.472;18.306;2023-06-24T16:58:54;26.10;70.00
11549;DHT22;61444;59.472;18.306;2023-06-24T17:01:02;27.20;69.50
11549;DHT22;61444;59.472;18.306;2023-06-24T17:03:14;28.10;67.80
11549;DHT22;61444;59.472;18.306;2023-06-24T17:05:22;28.40;66.10
11549;DHT22;61444;59.472;18.306;2023-06-24T17:07:30;26.70;68.90
11549;DHT22;61444;59.472;18.306;2023-06-24T17:09:39;26.90;69.80
11549;DHT22;61444;59.472;18.306;2023-06-24T17:11:49;26.90;69.50
11549;DHT22;61444;59.472;18.306;2023-06-24T17:13:57;26.90;70.60
11549;DHT22;61444;59.472;18.306;2023-06-24T17:16:05;27.00;69.90
11549;DHT22;61444;59.472;18.306;2023-06-24T17:18:13;27.30;71.50
11549;DHT22;61444;59.472;18.306;2023-06-24T17:20:22;27.50;71.90
11549;DHT22;61444;59.472;18.306;2023-06-24T17:22:30;27.80;72.20
11549;DHT22;61444;59.472;18.306;2023-06-24T17:24:38;27.40;71.60
11549;DHT22;61444;59.472;18.306;2023-06-24T17:26:48;27.60;72.80
11549;DHT22;61444;59.472;18.306;2023-06-24T17:28:56;27.60;72.10
11549;DHT22;61444;59.472;18.306;2023-06-24T17:31:05;27.90;71.30
11549;DHT22;61444;59.472;18.306;2023-06-24T17:33:13;27.90;71.40
11549;DHT22;61444;59.472;18.306;2023-06-24T17:35:22;27.50;71.60
11549;DHT22;61444;59.472;18.306;2023-06-24T17:37:30;27.40;72.90
11549;DHT22;61444;59.472;18.306;2023-06-24T17:39:38;28.00;71.40
11549;DHT22;61444;59.472;18.306;2023-06-24T17:41:46;28.00;71.20
11549;DHT22;61444;59.472;18.306;2023-06-24T17:43:56;28.60;70.30
11549;DHT22;61444;59.472;18.306;2023-06-24T17:46:05;29.10;68.50
11549;DHT22;61444;59.472;18.306;2023-06-24T17:48:13;29.80;66.80
11549;DHT22;61444;59.472;18.306;2023-06-24T17:50:22;29.80;65.90
11549;DHT22;61444;59.472;18.306;2023-06-24T17:52:30;29.70;65.50
11549;DHT22;61444;59.472;18.306;2023-06-24T17:54:39;28.50;67.70
11549;DHT22;61444;59.472;18.306;2023-06-24T17:58:57;25.40;77.00
11549;DHT22;61444;59.472;18.306;2023-06-24T18:01:06;24.60;79.70
11549;DHT22;61444;59.472;18.306;2023-06-24T18:03:21;24.00;82.40
11549;DHT22;61444;59.472;18.306;2023-06-24T18:05:30;23.70;83.60
11549;DHT22;61444;59.472;18.306;2023-06-24T18:07:39;23.50;85.40
11549;DHT22;61444;59.472;18.306;2023-06-24T18:09:47;23.20;87.10
11549;DHT22;61444;59.472;18.306;2023-06-24T18:11:55;23.60;87.10
11549;DHT22;61444;59.472;18.306;2023-06-24T18:14:05;23.40;87.70
11549;DHT22;61444;59.472;18.306;2023-06-24T18:16:13;23.20;89.20
11549;DHT22;61444;59.472;18.306;2023-06-24T18:18:22;22.80;90.50
11549;DHT22;61444;59.472;18.306;2023-06-24T18:20:30;22.50;91.60
11549;DHT22;61444;59.472;18.306;2023-06-24T18:22:39;22.30;92.70
11549;DHT22;61444;59.472;18.306;2023-06-24T18:24:47;22.20;93.70
11549;DHT22;61444;59.472;18.306;2023-06-24T18:26:55;21.90;95.20
11549;DHT22;61444;59.472;18.306;2023-06-24T18:29:05;21.80;96.20
11549;DHT22;61444;59.472;18.306;2023-06-24T18:31:14;21.70;97.00
11549;DHT22;61444;59.472;18.306;2023-06-24T18:33:22;21.50;98.50
11549;DHT22;61444;59.472;18.306;2023-06-24T18:35:30;21.30;99.90
11549;DHT22;61444;59.472;18.306;2023-06-24T18:37:39;21.20;99.90
11549;DHT22;61444;59.472;18.306;2023-06-24T18:39:48;21.20;99.90
11549;DHT22;61444;59.472;18.306;2023-06-24T18:41:56;20.90;99.90
11549;DHT22;61444;59.472;18.306;2023-06-24T18:44:06;20.90;99.90
11549;DHT22;61444;59.472;18.306;2023-06-24T18:46:16;20.80;99.90
11549;DHT22;61444;59.472;18.306;2023-06-24T18:48:26;20.80;99.90